sensor_id;sensor_type;location;lat;lon;timestamp;P1;durP1;ratioP1;P2;durP2;ratioP2
40515;SDS011;26216;53.724;9.898;2023-07-30T00:02:14;2.05;;;1.58;;
40515;SDS011;26216;53.724;9.898;2023-07-30T00:04:41;1.85;;;1.55;;
40515;SDS011;26216;53.724;9.898;2023-07-30T00:07:07;1.90;;;1.60;;
40515;SDS011;26216;53.724;9.898;2023-07-30T00:09:33;2.30;;;1.77;;
40515;SDS011;26216;53.724;9.898;2023-07-30T00:11:59;2.00;;;1.40;;
40515;SDS011;26216;53.724;9.898;2023-07-30T00:14:27;1.85;;;1.65;;
40515;SDS011;26216;53.724;9.898;2023-07-30T00:16:53;2.33;;;1.58;;
40515;SDS011;26216;53.724;9.898;2023-07-30T00:19:19;2.25;;;1.88;;
40515;SDS011;26216;53.724;9.898;2023-07-30T00:21:45;2.33;;;1.70;;
40515;SDS011;26216;53.724;9.898;2023-07-30T00:24:14;1.73;;;1.40;;
40515;SDS011;26216;53.724;9.898;2023-07-30T00:26:40;2.67;;;1.80;;
40515;SDS011;26216;53.724;9.898;2023-07-30T00:29:06;1.92;;;1.60;;
40515;SDS011;26216;53.724;9.898;2023-07-30T00:31:32;2.15;;;1.55;;
40515;SDS011;26216;53.724;9.898;2023-07-30T00:33:58;2.00;;;1.70;;
40515;SDS011;26216;53.724;9.898;2023-07-30T00:36:23;2.00;;;1.60;;
40515;SDS011;26216;53.724;9.898;2023-07-30T00:38:49;2.42;;;1.85;;
40515;SDS011;26216;53.724;9.898;2023-07-30T00:41:15;1.95;;;1.52;;
40515;SDS011;26216;53.724;9.898;2023-07-30T00:43:41;1.77;;;1.38;;
40515;SDS011;26216;53.724;9.898;2023-07-30T00:46:07;2.30;;;1.90;;
40515;SDS011;26216;53.724;9.898;2023-07-30T00:48:34;2.40;;;2.15;;
40515;SDS011;26216;53.724;9.898;2023-07-30T00:51:00;1.50;;;1.40;;
40515;SDS011;26216;53.724;9.898;2023-07-30T00:53:26;2.65;;;1.58;;
40515;SDS011;26216;53.724;9.898;2023-07-30T00:55:53;2.67;;;1.60;;
40515;SDS011;26216;53.724;9.898;2023-07-30T00:58:23;2.42;;;1.60;;
40515;SDS011;26216;53.724;9.898;2023-07-30T01:00:50;3.20;;;1.60;;
40515;SDS011;26216;53.724;9.898;2023-07-30T01:03:17;2.13;;;1.58;;
40515;SDS011;26216;53.724;9.898;2023-07-30T01:05:43;2.33;;;1.45;;
40515;SDS011;26216;53.724;9.898;2023-07-30T01:08:10;2.58;;;1.70;;
40515;SDS011;26216;53.724;9.898;2023-07-30T01:10:36;1.90;;;1.50;;
40515;SDS011;26216;53.724;9.898;2023-07-30T01:13:05;2.08;;;1.50;;
40515;SDS011;26216;53.724;9.898;2023-07-30T01:15:33;2.05;;;1.33;;
40515;SDS011;26216;53.724;9.898;2023-07-30T01:17:59;2.30;;;1.50;;
40515;SDS011;26216;53.724;9.898;2023-07-30T01:20:27;1.90;;;1.55;;
40515;SDS011;26216;53.724;9.898;2023-07-30T01:22:56;1.73;;;1.50;;
40515;SDS011;26216;53.724;9.898;2023-07-30T01:25:26;2.20;;;1.33;;
40515;SDS011;26216;53.724;9.898;2023-07-30T01:27:56;2.70;;;1.40;;
40515;SDS011;26216;53.724;9.898;2023-07-30T01:30:30;1.60;;;1.20;;
40515;SDS011;26216;53.724;9.898;2023-07-30T01:33:02;1.63;;;1.30;;
40515;SDS011;26216;53.724;9.898;2023-07-30T01:35:30;1.52;;;1.20;;
40515;SDS011;26216;53.724;9.898;2023-07-30T01:37:56;1.50;;;1.33;;
40515;SDS011;26216;53.724;9.898;2023-07-30T01:40:23;2.60;;;1.40;;
40515;SDS011;26216;53.724;9.898;2023-07-30T01:42:49;1.77;;;1.30;;
40515;SDS011;26216;53.724;9.898;2023-07-30T01:45:16;2.25;;;1.50;;
40515;SDS011;26216;53.724;9.898;2023-07-30T01:47:41;1.90;;;1.30;;
40515;SDS011;26216;53.724;9.898;2023-07-30T01:50:07;1.30;;;1.20;;
40515;SDS011;26216;53.724;9.898;2023-07-30T01:52:34;1.55;;;1.20;;
40515;SDS011;26216;53.724;9.898;2023-07-30T01:54:59;1.30;;;1.10;;
40515;SDS011;26216;53.724;9.898;2023-07-30T01:57:26;1.42;;;1.05;;
40515;SDS011;26216;53.724;9.898;2023-07-30T01:59:52;1.10;;;1.00;;
40515;SDS011;26216;53.724;9.898;2023-07-30T02:02:18;2.33;;;1.13;;
40515;SDS011;26216;53.724;9.898;2023-07-30T02:04:44;1.67;;;1.45;;
40515;SDS011;26216;53.724;9.898;2023-07-30T02:07:10;1.48;;;1.17;;
40515;SDS011;26216;53.724;9.898;2023-07-30T02:09:36;1.90;;;1.30;;
40515;SDS011;26216;53.724;9.898;2023-07-30T02:12:01;1.58;;;1.08;;
40515;SDS011;26216;53.724;9.898;2023-07-30T02:14:27;1.10;;;0.80;;
40515;SDS011;26216;53.724;9.898;2023-07-30T02:16:53;1.27;;;1.13;;
40515;SDS011;26216;53.724;9.898;2023-07-30T02:19:19;1.90;;;1.20;;
40515;SDS011;26216;53.724;9.898;2023-07-30T02:21:45;1.20;;;1.10;;
40515;SDS011;26216;53.724;9.898;2023-07-30T02:24:11;1.10;;;1.00;;
40515;SDS011;26216;53.724;9.898;2023-07-30T02:26:37;1.45;;;1.15;;
40515;SDS011;26216;53.724;9.898;2023-07-30T02:29:04;1.48;;;1.10;;
40515;SDS011;26216;53.724;9.898;2023-07-30T02:31:30;1.45;;;1.20;;
40515;SDS011;26216;53.724;9.898;2023-07-30T02:33:56;2.28;;;1.20;;
40515;SDS011;26216;53.724;9.898;2023-07-30T02:36:22;1.65;;;1.38;;
40515;SDS011;26216;53.724;9.898;2023-07-30T02:38:47;1.23;;;1.08;;
40515;SDS011;26216;53.724;9.898;2023-07-30T02:41:13;1.15;;;1.02;;
40515;SDS011;26216;53.724;9.898;2023-07-30T02:43:39;1.50;;;1.10;;
40515;SDS011;26216;53.724;9.898;2023-07-30T02:46:05;1.92;;;1.20;;
40515;SDS011;26216;53.724;9.898;2023-07-30T02:48:32;1.80;;;1.17;;
40515;SDS011;26216;53.724;9.898;2023-07-30T02:50:59;1.55;;;1.20;;
40515;SDS011;26216;53.724;9.898;2023-07-30T02:53:25;1.35;;;1.02;;
40515;SDS011;26216;53.724;9.898;2023-07-30T02:55:51;1.85;;;1.20;;
40515;SDS011;26216;53.724;9.898;2023-07-30T02:58:17;1.17;;;0.93;;
40515;SDS011;26216;53.724;9.898;2023-07-30T03:00:43;1.25;;;1.10;;
40515;SDS011;26216;53.724;9.898;2023-07-30T03:03:09;1.63;;;0.90;;
40515;SDS011;26216;53.724;9.898;2023-07-30T03:05:34;1.60;;;1.20;;
40515;SDS011;26216;53.724;9.898;2023-07-30T03:08:00;1.48;;;1.10;;
40515;SDS011;26216;53.724;9.898;2023-07-30T03:10:26;1.95;;;1.10;;
40515;SDS011;26216;53.724;9.898;2023-07-30T03:12:52;1.67;;;0.90;;
40515;SDS011;26216;53.724;9.898;2023-07-30T03:15:18;1.08;;;0.93;;
40515;SDS011;26216;53.724;9.898;2023-07-30T03:17:44;1.55;;;1.25;;
40515;SDS011;26216;53.724;9.898;2023-07-30T03:20:10;2.50;;;1.42;;
40515;SDS011;26216;53.724;9.898;2023-07-30T03:22:36;1.67;;;1.30;;
40515;SDS011;26216;53.724;9.898;2023-07-30T03:25:01;2.45;;;1.55;;
40515;SDS011;26216;53.724;9.898;2023-07-30T03:27:28;3.00;;;1.80;;
40515;SDS011;26216;53.724;9.898;2023-07-30T03:29:54;2.42;;;1.70;;
40515;SDS011;26216;53.724;9.898;2023-07-30T03:32:19;2.97;;;2.10;;
40515;SDS011;26216;53.724;9.898;2023-07-30T03:34:45;3.65;;;2.17;;
40515;SDS011;26216;53.724;9.898;2023-07-30T03:37:11;3.97;;;2.45;;
40515;SDS011;26216;53.724;9.898;2023-07-30T03:39:37;3.97;;;2.35;;
40515;SDS011;26216;53.724;9.898;2023-07-30T03:42:03;3.83;;;2.33;;
40515;SDS011;26216;53.724;9.898;2023-07-30T03:44:29;2.90;;;1.83;;
40515;SDS011;26216;53.724;9.898;2023-07-30T03:46:54;3.58;;;1.98;;
40515;SDS011;26216;53.724;9.898;2023-07-30T03:49:20;3.90;;;2.28;;
40515;SDS011;26216;53.724;9.898;2023-07-30T03:51:47;2.70;;;1.83;;
40515;SDS011;26216;53.724;9.898;2023-07-30T03:54:12;3.08;;;1.90;;
40515;SDS011;26216;53.724;9.898;2023-07-30T03:56:38;2.67;;;1.70;;
40515;SDS011;26216;53.724;9.898;2023-07-30T03:59:04;2.00;;;1.55;;
40515;SDS011;26216;53.724;9.898;2023-07-30T04:01:30;3.08;;;1.90;;
40515;SDS011;26216;53.724;9.898;2023-07-30T04:03:56;2.30;;;1.60;;
40515;SDS011;26216;53.724;9.898;2023-07-30T04:06:22;2.53;;;1.98;;
40515;SDS011;26216;53.724;9.898;2023-07-30T04:08:48;2.25;;;1.45;;
40515;SDS011;26216;53.724;9.898;2023-07-30T04:11:14;2.90;;;1.58;;
40515;SDS011;26216;53.724;9.898;2023-07-30T04:13:40;2.72;;;1.40;;
40515;SDS011;26216;53.724;9.898;2023-07-30T04:16:07;2.88;;;1.90;;
40515;SDS011;26216;53.724;9.898;2023-07-30T04:18:33;2.60;;;1.85;;
40515;SDS011;26216;53.724;9.898;2023-07-30T04:20:59;3.17;;;2.08;;
40515;SDS011;26216;53.724;9.898;2023-07-30T04:23:25;2.30;;;1.48;;
40515;SDS011;26216;53.724;9.898;2023-07-30T04:25:50;2.03;;;1.80;;
40515;SDS011;26216;53.724;9.898;2023-07-30T04:28:16;1.83;;;1.58;;
40515;SDS011;26216;53.724;9.898;2023-07-30T04:30:43;1.95;;;1.65;;
40515;SDS011;26216;53.724;9.898;2023-07-30T04:33:09;2.55;;;1.85;;
40515;SDS011;26216;53.724;9.898;2023-07-30T04:35:35;3.17;;;1.98;;
40515;SDS011;26216;53.724;9.898;2023-07-30T04:38:01;2.65;;;1.92;;
40515;SDS011;26216;53.724;9.898;2023-07-30T04:40:26;4.05;;;2.17;;
40515;SDS011;26216;53.724;9.898;2023-07-30T04:42:52;3.65;;;2.00;;
40515;SDS011;26216;53.724;9.898;2023-07-30T04:45:18;2.20;;;1.70;;
40515;SDS011;26216;53.724;9.898;2023-07-30T04:47:44;2.55;;;1.77;;
40515;SDS011;26216;53.724;9.898;2023-07-30T04:50:10;1.90;;;1.60;;
40515;SDS011;26216;53.724;9.898;2023-07-30T04:52:35;2.22;;;1.83;;
40515;SDS011;26216;53.724;9.898;2023-07-30T04:55:02;1.98;;;1.60;;
40515;SDS011;26216;53.724;9.898;2023-07-30T04:57:27;2.45;;;1.85;;
40515;SDS011;26216;53.724;9.898;2023-07-30T04:59:53;2.92;;;2.00;;
40515;SDS011;26216;53.724;9.898;2023-07-30T05:02:19;2.92;;;2.00;;
40515;SDS011;26216;53.724;9.898;2023-07-30T05:04:45;2.90;;;1.90;;
40515;SDS011;26216;53.724;9.898;2023-07-30T05:07:11;3.33;;;2.38;;
40515;SDS011;26216;53.724;9.898;2023-07-30T05:09:36;3.15;;;1.90;;
40515;SDS011;26216;53.724;9.898;2023-07-30T05:12:02;2.70;;;2.13;;
40515;SDS011;26216;53.724;9.898;2023-07-30T05:14:28;3.00;;;1.98;;
40515;SDS011;26216;53.724;9.898;2023-07-30T05:16:54;2.67;;;2.30;;
40515;SDS011;26216;53.724;9.898;2023-07-30T05:19:20;3.13;;;2.30;;
40515;SDS011;26216;53.724;9.898;2023-07-30T05:21:46;3.72;;;2.20;;
40515;SDS011;26216;53.724;9.898;2023-07-30T05:24:12;3.28;;;2.08;;
40515;SDS011;26216;53.724;9.898;2023-07-30T05:26:37;2.85;;;1.95;;
40515;SDS011;26216;53.724;9.898;2023-07-30T05:29:03;3.22;;;2.30;;
40515;SDS011;26216;53.724;9.898;2023-07-30T05:31:29;4.53;;;2.25;;
40515;SDS011;26216;53.724;9.898;2023-07-30T05:33:55;3.00;;;2.25;;
40515;SDS011;26216;53.724;9.898;2023-07-30T05:36:21;3.15;;;2.03;;
40515;SDS011;26216;53.724;9.898;2023-07-30T05:38:47;2.97;;;2.00;;
40515;SDS011;26216;53.724;9.898;2023-07-30T05:41:12;3.78;;;2.30;;
40515;SDS011;26216;53.724;9.898;2023-07-30T05:43:38;3.97;;;2.08;;
40515;SDS011;26216;53.724;9.898;2023-07-30T05:46:04;3.17;;;2.38;;
40515;SDS011;26216;53.724;9.898;2023-07-30T05:48:30;3.38;;;2.38;;
40515;SDS011;26216;53.724;9.898;2023-07-30T05:50:56;3.70;;;2.13;;
40515;SDS011;26216;53.724;9.898;2023-07-30T05:53:21;3.40;;;2.10;;
40515;SDS011;26216;53.724;9.898;2023-07-30T05:55:47;2.50;;;2.15;;
40515;SDS011;26216;53.724;9.898;2023-07-30T05:58:13;3.50;;;2.45;;
40515;SDS011;26216;53.724;9.898;2023-07-30T06:00:39;4.15;;;2.47;;
40515;SDS011;26216;53.724;9.898;2023-07-30T06:03:05;5.60;;;3.05;;
40515;SDS011;26216;53.724;9.898;2023-07-30T06:05:31;5.07;;;2.40;;
40515;SDS011;26216;53.724;9.898;2023-07-30T06:07:57;3.70;;;2.42;;
40515;SDS011;26216;53.724;9.898;2023-07-30T06:10:24;5.13;;;2.97;;
40515;SDS011;26216;53.724;9.898;2023-07-30T06:12:50;4.97;;;2.42;;
40515;SDS011;26216;53.724;9.898;2023-07-30T06:15:16;4.90;;;2.30;;
40515;SDS011;26216;53.724;9.898;2023-07-30T06:17:42;4.60;;;2.75;;
40515;SDS011;26216;53.724;9.898;2023-07-30T06:20:08;3.45;;;2.50;;
40515;SDS011;26216;53.724;9.898;2023-07-30T06:22:34;3.80;;;2.28;;
40515;SDS011;26216;53.724;9.898;2023-07-30T06:25:00;5.25;;;2.38;;
40515;SDS011;26216;53.724;9.898;2023-07-30T06:27:26;6.35;;;2.50;;
40515;SDS011;26216;53.724;9.898;2023-07-30T06:29:52;3.25;;;2.10;;
40515;SDS011;26216;53.724;9.898;2023-07-30T06:32:18;4.80;;;2.80;;
40515;SDS011;26216;53.724;9.898;2023-07-30T06:34:44;4.88;;;2.40;;
40515;SDS011;26216;53.724;9.898;2023-07-30T06:37:10;3.67;;;2.28;;
40515;SDS011;26216;53.724;9.898;2023-07-30T06:39:36;5.63;;;2.60;;
40515;SDS011;26216;53.724;9.898;2023-07-30T06:42:02;7.05;;;2.95;;
40515;SDS011;26216;53.724;9.898;2023-07-30T06:44:28;3.22;;;2.30;;
40515;SDS011;26216;53.724;9.898;2023-07-30T06:46:53;4.47;;;2.70;;
40515;SDS011;26216;53.724;9.898;2023-07-30T06:49:20;6.90;;;2.70;;
40515;SDS011;26216;53.724;9.898;2023-07-30T06:51:46;4.43;;;2.63;;
40515;SDS011;26216;53.724;9.898;2023-07-30T06:54:12;4.75;;;2.80;;
40515;SDS011;26216;53.724;9.898;2023-07-30T06:56:38;5.15;;;2.65;;
40515;SDS011;26216;53.724;9.898;2023-07-30T06:59:04;5.10;;;2.55;;
40515;SDS011;26216;53.724;9.898;2023-07-30T07:01:30;9.07;;;2.92;;
40515;SDS011;26216;53.724;9.898;2023-07-30T07:03:56;3.90;;;2.65;;
40515;SDS011;26216;53.724;9.898;2023-07-30T07:06:21;5.22;;;2.90;;
40515;SDS011;26216;53.724;9.898;2023-07-30T07:08:47;6.47;;;2.88;;
40515;SDS011;26216;53.724;9.898;2023-07-30T07:11:13;5.43;;;2.78;;
40515;SDS011;26216;53.724;9.898;2023-07-30T07:13:39;5.13;;;2.83;;
40515;SDS011;26216;53.724;9.898;2023-07-30T07:16:05;6.10;;;3.22;;
40515;SDS011;26216;53.724;9.898;2023-07-30T07:18:31;3.42;;;2.28;;
40515;SDS011;26216;53.724;9.898;2023-07-30T07:20:57;5.55;;;2.90;;
40515;SDS011;26216;53.724;9.898;2023-07-30T07:23:23;7.15;;;2.97;;
40515;SDS011;26216;53.724;9.898;2023-07-30T07:25:49;6.53;;;2.78;;
40515;SDS011;26216;53.724;9.898;2023-07-30T07:28:14;4.75;;;3.45;;
40515;SDS011;26216;53.724;9.898;2023-07-30T07:30:41;6.00;;;3.40;;
40515;SDS011;26216;53.724;9.898;2023-07-30T07:33:08;5.20;;;3.58;;
40515;SDS011;26216;53.724;9.898;2023-07-30T07:35:38;5.47;;;2.83;;
40515;SDS011;26216;53.724;9.898;2023-07-30T07:38:04;6.70;;;3.20;;
40515;SDS011;26216;53.724;9.898;2023-07-30T07:40:30;5.97;;;2.92;;
40515;SDS011;26216;53.724;9.898;2023-07-30T07:42:56;6.13;;;2.85;;
40515;SDS011;26216;53.724;9.898;2023-07-30T07:45:22;7.78;;;3.75;;
40515;SDS011;26216;53.724;9.898;2023-07-30T07:47:48;6.65;;;3.33;;
40515;SDS011;26216;53.724;9.898;2023-07-30T07:50:14;4.32;;;2.75;;
40515;SDS011;26216;53.724;9.898;2023-07-30T07:52:41;6.38;;;3.10;;
40515;SDS011;26216;53.724;9.898;2023-07-30T07:55:07;7.00;;;3.40;;
40515;SDS011;26216;53.724;9.898;2023-07-30T07:57:33;5.72;;;3.33;;
40515;SDS011;26216;53.724;9.898;2023-07-30T07:59:59;10.10;;;3.22;;
40515;SDS011;26216;53.724;9.898;2023-07-30T08:02:24;7.45;;;4.03;;
40515;SDS011;26216;53.724;9.898;2023-07-30T08:04:50;6.63;;;2.85;;
40515;SDS011;26216;53.724;9.898;2023-07-30T08:07:16;5.35;;;3.40;;
40515;SDS011;26216;53.724;9.898;2023-07-30T08:09:42;5.05;;;2.83;;
40515;SDS011;26216;53.724;9.898;2023-07-30T08:12:08;4.93;;;2.88;;
40515;SDS011;26216;53.724;9.898;2023-07-30T08:14:34;4.90;;;2.60;;
40515;SDS011;26216;53.724;9.898;2023-07-30T08:16:59;5.32;;;2.75;;
40515;SDS011;26216;53.724;9.898;2023-07-30T08:19:25;6.75;;;3.03;;
40515;SDS011;26216;53.724;9.898;2023-07-30T08:21:52;7.07;;;3.45;;
40515;SDS011;26216;53.724;9.898;2023-07-30T08:24:18;4.20;;;2.55;;
40515;SDS011;26216;53.724;9.898;2023-07-30T08:26:44;6.00;;;3.03;;
40515;SDS011;26216;53.724;9.898;2023-07-30T08:29:11;7.03;;;2.60;;
40515;SDS011;26216;53.724;9.898;2023-07-30T08:31:39;5.95;;;3.15;;
40515;SDS011;26216;53.724;9.898;2023-07-30T08:34:05;6.18;;;3.15;;
40515;SDS011;26216;53.724;9.898;2023-07-30T08:36:31;6.07;;;3.00;;
40515;SDS011;26216;53.724;9.898;2023-07-30T08:38:57;7.32;;;2.75;;
40515;SDS011;26216;53.724;9.898;2023-07-30T08:41:24;6.00;;;3.22;;
40515;SDS011;26216;53.724;9.898;2023-07-30T08:43:50;7.47;;;2.70;;
40515;SDS011;26216;53.724;9.898;2023-07-30T08:46:18;10.25;;;4.05;;
40515;SDS011;26216;53.724;9.898;2023-07-30T08:48:44;6.70;;;2.90;;
40515;SDS011;26216;53.724;9.898;2023-07-30T08:51:10;6.38;;;2.78;;
40515;SDS011;26216;53.724;9.898;2023-07-30T08:53:38;5.28;;;2.70;;
40515;SDS011;26216;53.724;9.898;2023-07-30T08:56:05;5.22;;;2.80;;
40515;SDS011;26216;53.724;9.898;2023-07-30T08:58:31;7.85;;;3.13;;
40515;SDS011;26216;53.724;9.898;2023-07-30T09:00:58;6.85;;;2.80;;
40515;SDS011;26216;53.724;9.898;2023-07-30T09:03:27;4.97;;;2.55;;
40515;SDS011;26216;53.724;9.898;2023-07-30T09:05:54;8.93;;;3.40;;
40515;SDS011;26216;53.724;9.898;2023-07-30T09:08:20;11.52;;;4.25;;
40515;SDS011;26216;53.724;9.898;2023-07-30T09:10:48;6.65;;;3.42;;
40515;SDS011;26216;53.724;9.898;2023-07-30T09:13:20;5.95;;;3.22;;
40515;SDS011;26216;53.724;9.898;2023-07-30T09:15:48;5.32;;;2.58;;
40515;SDS011;26216;53.724;9.898;2023-07-30T09:18:18;6.30;;;3.30;;
40515;SDS011;26216;53.724;9.898;2023-07-30T09:20:45;6.82;;;3.30;;
40515;SDS011;26216;53.724;9.898;2023-07-30T09:23:11;5.63;;;2.40;;
40515;SDS011;26216;53.724;9.898;2023-07-30T09:25:38;4.93;;;2.53;;
40515;SDS011;26216;53.724;9.898;2023-07-30T09:28:05;5.43;;;2.50;;
40515;SDS011;26216;53.724;9.898;2023-07-30T09:30:31;6.95;;;2.80;;
40515;SDS011;26216;53.724;9.898;2023-07-30T09:32:58;8.43;;;3.30;;
40515;SDS011;26216;53.724;9.898;2023-07-30T09:35:25;4.47;;;2.40;;
40515;SDS011;26216;53.724;9.898;2023-07-30T09:38:01;6.07;;;3.03;;
40515;SDS011;26216;53.724;9.898;2023-07-30T09:40:35;5.30;;;2.95;;
40515;SDS011;26216;53.724;9.898;2023-07-30T09:43:03;4.20;;;2.30;;
40515;SDS011;26216;53.724;9.898;2023-07-30T09:45:33;8.07;;;2.80;;
40515;SDS011;26216;53.724;9.898;2023-07-30T09:48:03;6.30;;;3.03;;
40515;SDS011;26216;53.724;9.898;2023-07-30T09:50:31;8.27;;;3.75;;
40515;SDS011;26216;53.724;9.898;2023-07-30T09:52:58;5.63;;;2.70;;
40515;SDS011;26216;53.724;9.898;2023-07-30T09:55:26;6.78;;;3.30;;
40515;SDS011;26216;53.724;9.898;2023-07-30T09:57:52;7.65;;;4.20;;
40515;SDS011;26216;53.724;9.898;2023-07-30T10:00:18;7.65;;;3.88;;
40515;SDS011;26216;53.724;9.898;2023-07-30T10:02:48;10.50;;;4.50;;
40515;SDS011;26216;53.724;9.898;2023-07-30T10:05:16;7.50;;;4.15;;
40515;SDS011;26216;53.724;9.898;2023-07-30T10:10:18;7.88;;;5.07;;
40515;SDS011;26216;53.724;9.898;2023-07-30T10:12:46;7.20;;;3.85;;
40515;SDS011;26216;53.724;9.898;2023-07-30T10:15:14;6.13;;;3.88;;
40515;SDS011;26216;53.724;9.898;2023-07-30T10:17:49;6.07;;;3.85;;
40515;SDS011;26216;53.724;9.898;2023-07-30T10:20:19;9.02;;;4.22;;
40515;SDS011;26216;53.724;9.898;2023-07-30T10:23:04;6.43;;;3.25;;
40515;SDS011;26216;53.724;9.898;2023-07-30T10:25:42;5.50;;;3.25;;
40515;SDS011;26216;53.724;9.898;2023-07-30T10:28:31;6.38;;;3.03;;
40515;SDS011;26216;53.724;9.898;2023-07-30T10:31:02;4.97;;;3.00;;
40515;SDS011;26216;53.724;9.898;2023-07-30T10:33:52;4.45;;;2.67;;
40515;SDS011;26216;53.724;9.898;2023-07-30T10:36:31;3.33;;;2.72;;
40515;SDS011;26216;53.724;9.898;2023-07-30T10:39:18;8.30;;;3.20;;
40515;SDS011;26216;53.724;9.898;2023-07-30T10:41:57;4.40;;;2.30;;
40515;SDS011;26216;53.724;9.898;2023-07-30T10:44:26;3.92;;;2.40;;
40515;SDS011;26216;53.724;9.898;2023-07-30T10:47:00;4.55;;;2.35;;
40515;SDS011;26216;53.724;9.898;2023-07-30T10:49:28;5.20;;;2.25;;
40515;SDS011;26216;53.724;9.898;2023-07-30T10:51:55;4.28;;;1.98;;
40515;SDS011;26216;53.724;9.898;2023-07-30T10:54:22;4.65;;;1.98;;
40515;SDS011;26216;53.724;9.898;2023-07-30T10:56:49;6.18;;;2.05;;
40515;SDS011;26216;53.724;9.898;2023-07-30T10:59:16;3.97;;;1.65;;
40515;SDS011;26216;53.724;9.898;2023-07-30T11:01:52;4.93;;;1.95;;
40515;SDS011;26216;53.724;9.898;2023-07-30T11:04:19;4.20;;;1.80;;
40515;SDS011;26216;53.724;9.898;2023-07-30T11:06:46;3.20;;;1.50;;
40515;SDS011;26216;53.724;9.898;2023-07-30T11:09:18;5.60;;;1.80;;
40515;SDS011;26216;53.724;9.898;2023-07-30T11:11:45;4.05;;;1.55;;
40515;SDS011;26216;53.724;9.898;2023-07-30T11:14:18;2.85;;;1.50;;
40515;SDS011;26216;53.724;9.898;2023-07-30T11:16:52;4.82;;;2.00;;
40515;SDS011;26216;53.724;9.898;2023-07-30T11:19:20;3.70;;;1.40;;
40515;SDS011;26216;53.724;9.898;2023-07-30T11:24:13;4.05;;;1.58;;
40515;SDS011;26216;53.724;9.898;2023-07-30T11:26:39;3.42;;;1.30;;
40515;SDS011;26216;53.724;9.898;2023-07-30T11:29:15;3.30;;;1.48;;
40515;SDS011;26216;53.724;9.898;2023-07-30T11:31:42;4.35;;;1.73;;
40515;SDS011;26216;53.724;9.898;2023-07-30T11:34:09;4.47;;;1.33;;
40515;SDS011;26216;53.724;9.898;2023-07-30T11:36:36;4.35;;;1.75;;
40515;SDS011;26216;53.724;9.898;2023-07-30T11:39:03;4.07;;;1.40;;
40515;SDS011;26216;53.724;9.898;2023-07-30T11:41:29;3.65;;;1.40;;
40515;SDS011;26216;53.724;9.898;2023-07-30T11:43:55;2.30;;;1.17;;
40515;SDS011;26216;53.724;9.898;2023-07-30T11:46:21;5.18;;;1.40;;
40515;SDS011;26216;53.724;9.898;2023-07-30T11:48:51;4.25;;;1.23;;
40515;SDS011;26216;53.724;9.898;2023-07-30T11:53:47;4.00;;;1.27;;
40515;SDS011;26216;53.724;9.898;2023-07-30T11:56:25;2.38;;;1.10;;
40515;SDS011;26216;53.724;9.898;2023-07-30T11:58:55;4.38;;;1.80;;
40515;SDS011;26216;53.724;9.898;2023-07-30T12:01:22;4.22;;;2.10;;
40515;SDS011;26216;53.724;9.898;2023-07-30T12:03:50;4.47;;;1.80;;
40515;SDS011;26216;53.724;9.898;2023-07-30T12:06:19;3.08;;;1.45;;
40515;SDS011;26216;53.724;9.898;2023-07-30T12:08:44;4.00;;;1.20;;
40515;SDS011;26216;53.724;9.898;2023-07-30T12:11:14;3.40;;;1.20;;
40515;SDS011;26216;53.724;9.898;2023-07-30T12:13:45;3.13;;;1.50;;
40515;SDS011;26216;53.724;9.898;2023-07-30T12:16:11;3.08;;;1.30;;
40515;SDS011;26216;53.724;9.898;2023-07-30T12:18:38;5.13;;;1.38;;
40515;SDS011;26216;53.724;9.898;2023-07-30T12:21:05;3.17;;;1.42;;
40515;SDS011;26216;53.724;9.898;2023-07-30T12:23:33;5.32;;;1.42;;
40515;SDS011;26216;53.724;9.898;2023-07-30T12:26:00;6.03;;;1.77;;
40515;SDS011;26216;53.724;9.898;2023-07-30T12:28:29;4.20;;;1.58;;
40515;SDS011;26216;53.724;9.898;2023-07-30T12:30:59;5.07;;;1.37;;
40515;SDS011;26216;53.724;9.898;2023-07-30T12:33:26;4.28;;;1.55;;
40515;SDS011;26216;53.724;9.898;2023-07-30T12:35:52;4.57;;;1.52;;
40515;SDS011;26216;53.724;9.898;2023-07-30T12:38:18;2.40;;;1.20;;
40515;SDS011;26216;53.724;9.898;2023-07-30T12:40:44;4.75;;;2.00;;
40515;SDS011;26216;53.724;9.898;2023-07-30T12:43:10;5.85;;;1.90;;
40515;SDS011;26216;53.724;9.898;2023-07-30T12:45:36;2.88;;;1.60;;
40515;SDS011;26216;53.724;9.898;2023-07-30T12:48:02;4.95;;;2.00;;
40515;SDS011;26216;53.724;9.898;2023-07-30T12:50:28;5.82;;;2.60;;
40515;SDS011;26216;53.724;9.898;2023-07-30T12:52:54;5.18;;;1.58;;
40515;SDS011;26216;53.724;9.898;2023-07-30T12:55:21;3.53;;;1.55;;
40515;SDS011;26216;53.724;9.898;2023-07-30T12:57:47;3.60;;;1.77;;
40515;SDS011;26216;53.724;9.898;2023-07-30T13:00:13;3.92;;;1.75;;
40515;SDS011;26216;53.724;9.898;2023-07-30T13:02:39;4.97;;;1.67;;
40515;SDS011;26216;53.724;9.898;2023-07-30T13:05:05;4.93;;;2.33;;
40515;SDS011;26216;53.724;9.898;2023-07-30T13:07:31;3.95;;;1.90;;
40515;SDS011;26216;53.724;9.898;2023-07-30T13:10:07;3.95;;;2.40;;
40515;SDS011;26216;53.724;9.898;2023-07-30T13:12:33;9.20;;;2.70;;
40515;SDS011;26216;53.724;9.898;2023-07-30T13:15:00;6.55;;;2.55;;
40515;SDS011;26216;53.724;9.898;2023-07-30T13:17:27;3.42;;;1.77;;
40515;SDS011;26216;53.724;9.898;2023-07-30T13:19:53;2.60;;;1.25;;
40515;SDS011;26216;53.724;9.898;2023-07-30T13:22:19;4.35;;;1.30;;
40515;SDS011;26216;53.724;9.898;2023-07-30T13:24:45;3.08;;;1.38;;
40515;SDS011;26216;53.724;9.898;2023-07-30T13:27:11;2.67;;;1.20;;
40515;SDS011;26216;53.724;9.898;2023-07-30T13:29:37;4.20;;;1.20;;
40515;SDS011;26216;53.724;9.898;2023-07-30T13:32:02;3.25;;;1.20;;
40515;SDS011;26216;53.724;9.898;2023-07-30T13:34:29;2.75;;;1.00;;
40515;SDS011;26216;53.724;9.898;2023-07-30T13:36:56;1.58;;;0.85;;
40515;SDS011;26216;53.724;9.898;2023-07-30T13:39:22;2.15;;;0.88;;
40515;SDS011;26216;53.724;9.898;2023-07-30T13:41:48;1.88;;;1.00;;
40515;SDS011;26216;53.724;9.898;2023-07-30T13:44:14;1.80;;;1.10;;
40515;SDS011;26216;53.724;9.898;2023-07-30T13:46:40;1.58;;;0.82;;
40515;SDS011;26216;53.724;9.898;2023-07-30T13:49:06;1.90;;;0.77;;
40515;SDS011;26216;53.724;9.898;2023-07-30T13:51:33;1.38;;;0.63;;
40515;SDS011;26216;53.724;9.898;2023-07-30T13:53:59;2.00;;;0.88;;
40515;SDS011;26216;53.724;9.898;2023-07-30T13:56:28;1.58;;;0.75;;
40515;SDS011;26216;53.724;9.898;2023-07-30T13:58:55;2.40;;;0.95;;
40515;SDS011;26216;53.724;9.898;2023-07-30T14:01:21;3.22;;;1.08;;
40515;SDS011;26216;53.724;9.898;2023-07-30T14:03:47;2.95;;;1.00;;
40515;SDS011;26216;53.724;9.898;2023-07-30T14:06:13;2.15;;;0.90;;
40515;SDS011;26216;53.724;9.898;2023-07-30T14:08:39;2.92;;;1.02;;
40515;SDS011;26216;53.724;9.898;2023-07-30T14:11:05;2.15;;;0.90;;
40515;SDS011;26216;53.724;9.898;2023-07-30T14:13:31;1.77;;;0.93;;
40515;SDS011;26216;53.724;9.898;2023-07-30T14:15:58;1.50;;;0.90;;
40515;SDS011;26216;53.724;9.898;2023-07-30T14:18:24;2.38;;;0.90;;
40515;SDS011;26216;53.724;9.898;2023-07-30T14:20:51;2.17;;;0.90;;
40515;SDS011;26216;53.724;9.898;2023-07-30T14:23:17;1.52;;;0.80;;
40515;SDS011;26216;53.724;9.898;2023-07-30T14:25:44;1.38;;;0.65;;
40515;SDS011;26216;53.724;9.898;2023-07-30T14:28:10;2.35;;;0.90;;
40515;SDS011;26216;53.724;9.898;2023-07-30T14:30:36;2.10;;;1.10;;
40515;SDS011;26216;53.724;9.898;2023-07-30T14:33:09;4.40;;;1.30;;
40515;SDS011;26216;53.724;9.898;2023-07-30T14:35:36;1.63;;;0.80;;
40515;SDS011;26216;53.724;9.898;2023-07-30T14:38:05;3.03;;;1.08;;
40515;SDS011;26216;53.724;9.898;2023-07-30T14:40:32;1.38;;;0.77;;
40515;SDS011;26216;53.724;9.898;2023-07-30T14:42:58;2.03;;;0.80;;
40515;SDS011;26216;53.724;9.898;2023-07-30T14:45:24;2.53;;;1.00;;
40515;SDS011;26216;53.724;9.898;2023-07-30T14:47:50;2.90;;;1.10;;
40515;SDS011;26216;53.724;9.898;2023-07-30T14:50:17;2.38;;;0.95;;
40515;SDS011;26216;53.724;9.898;2023-07-30T14:52:43;3.58;;;1.10;;
40515;SDS011;26216;53.724;9.898;2023-07-30T14:55:09;2.03;;;1.13;;